createdAt,value
2019-01-05T00:00:14.806Z,31.83
2019-01-05T00:03:01.443Z,33.97
2019-01-05T00:05:58.485Z,34.33
2019-01-05T00:08:58.642Z,33.90
2019-01-05T00:11:58.698Z,29.93
2019-01-05T00:15:04.948Z,39.10
2019-01-05T00:17:52.185Z,43.17
2019-01-05T00:20:32.087Z,28.43
2019-01-05T00:23:30.105Z,29.93
2019-01-05T00:26:18.366Z,29.57
2019-01-05T00:29:06.907Z,28.10
2019-01-05T00:32:01.280Z,34.67
2019-01-05T00:34:53.880Z,27.73
2019-01-05T00:37:47.909Z,32.93
2019-01-05T00:40:36.818Z,31.97
2019-01-05T00:43:38.725Z,30.83
2019-01-05T00:46:45.383Z,31.63
2019-01-05T00:49:29.419Z,28.97
2019-01-05T00:52:17.593Z,29.80
2019-01-05T00:55:16.022Z,25.77
2019-01-05T00:58:01.771Z,18.93
2019-01-05T01:00:48.844Z,22.43
2019-01-05T01:03:35.870Z,23.63
2019-01-05T01:06:36.431Z,26.30
2019-01-05T01:09:19.559Z,23.43
2019-01-05T01:12:07.942Z,24.37
2019-01-05T01:14:54.527Z,25.43
2019-01-05T01:17:45.832Z,27.23
2019-01-05T01:20:40.147Z,26.87
2019-01-05T01:23:32.364Z,28.80
2019-01-05T01:26:31.679Z,28.23
2019-01-05T01:29:18.715Z,26.33
2019-01-05T01:32:15.890Z,28.27
2019-01-05T01:35:02.532Z,26.90
2019-01-05T01:38:32.480Z,27.33
2019-01-05T01:41:20.583Z,28.07
2019-01-05T01:44:12.287Z,28.97
2019-01-05T01:47:09.470Z,27.50
2019-01-05T01:49:58.078Z,28.63
2019-01-05T01:52:52.003Z,27.90
2019-01-05T01:55:52.862Z,25.23
2019-01-05T01:58:40.762Z,29.43
2019-01-05T02:01:44.098Z,31.77
2019-01-05T02:04:35.915Z,28.57
2019-01-05T02:07:23.395Z,30.13
2019-01-05T02:10:30.323Z,28.47
2019-01-05T02:13:39.227Z,29.03
2019-01-05T02:16:50.855Z,26.97
2019-01-05T02:19:48.267Z,25.10
2019-01-05T02:23:16.819Z,26.80
2019-01-05T02:26:44.870Z,25.40
2019-01-05T02:30:21.310Z,26.53
2019-01-05T02:33:50.552Z,25.30
2019-01-05T02:37:16.915Z,26.93
2019-01-05T02:40:44.646Z,24.27
2019-01-05T02:44:12.531Z,25.17
2019-01-05T02:47:49.722Z,17.27
2019-01-05T02:51:04.851Z,19.13
2019-01-05T02:54:44.146Z,23.80
2019-01-05T02:58:26.495Z,18.90
2019-01-05T03:01:50.202Z,19.10
2019-01-05T03:05:02.588Z,18.57
2019-01-05T03:08:45.769Z,16.67
2019-01-05T03:11:59.238Z,18.70
2019-01-05T03:15:41.279Z,17.80
2019-01-05T03:19:19.507Z,16.67
2019-01-05T03:22:50.484Z,15.13
2019-01-05T03:26:21.036Z,18.47
2019-01-05T03:30:23.626Z,19.17
2019-01-05T03:33:59.864Z,12.97
2019-01-05T03:37:12.084Z,18.90
2019-01-05T03:41:01.095Z,22.10
2019-01-05T03:44:32.527Z,20.87
2019-01-05T03:47:57.291Z,20.40
2019-01-05T03:51:18.034Z,24.33
2019-01-05T03:54:57.071Z,24.17
2019-01-05T03:58:38.450Z,23.67
2019-01-05T04:02:24.168Z,17.97
2019-01-05T04:06:26.030Z,18.73
2019-01-05T04:10:19.051Z,16.93
2019-01-05T04:13:42.399Z,19.10
2019-01-05T04:17:31.840Z,16.00
2019-01-05T04:21:04.051Z,15.33
2019-01-05T04:24:33.072Z,12.03
2019-01-05T04:27:55.302Z,12.27
2019-01-05T04:31:20.461Z,13.07
2019-01-05T04:35:08.117Z,17.03
2019-01-05T04:38:35.387Z,16.40
2019-01-05T04:41:48.151Z,14.90
2019-01-05T04:45:19.142Z,13.63
2019-01-05T04:48:41.616Z,17.53
2019-01-05T04:52:24.092Z,13.87
2019-01-05T04:55:47.638Z,13.87
2019-01-05T04:58:53.626Z,14.20
2019-01-05T05:02:26.934Z,16.73
2019-01-05T05:06:02.623Z,13.50
2019-01-05T05:09:26.228Z,12.97
2019-01-05T05:13:06.080Z,19.70
2019-01-05T05:16:24.677Z,17.17
2019-01-05T05:20:14.391Z,11.20
2019-01-05T05:23:58.018Z,16.43
2019-01-05T05:27:24.758Z,14.37
2019-01-05T05:30:52.583Z,14.63
2019-01-05T05:34:07.932Z,16.43
2019-01-05T05:38:04.043Z,14.93
2019-01-05T05:41:28.431Z,16.10
2019-01-05T05:44:51.999Z,16.77
2019-01-05T05:48:22.653Z,17.30
2019-01-05T05:51:44.895Z,15.27
2019-01-05T05:55:23.267Z,19.73
2019-01-05T05:58:50.739Z,12.80
2019-01-05T06:02:45.787Z,17.13
2019-01-05T06:06:08.924Z,14.07
2019-01-05T06:09:46.966Z,18.17
2019-01-05T06:13:24.908Z,20.30
2019-01-05T06:16:58.323Z,18.20
2019-01-05T06:20:29.591Z,16.87
2019-01-05T06:23:58.273Z,17.50
2019-01-05T06:27:34.046Z,22.10
2019-01-05T06:30:47.219Z,22.07
2019-01-05T06:34:19.447Z,17.03
2019-01-05T06:37:52.645Z,20.87
2019-01-05T06:41:30.663Z,18.43
2019-01-05T06:45:06.023Z,23.20
2019-01-05T06:48:41.699Z,24.47
2019-01-05T06:52:25.780Z,26.60
2019-01-05T06:55:52.650Z,31.93
2019-01-05T06:59:25.698Z,22.70
2019-01-05T07:02:46.205Z,24.50
2019-01-05T07:06:28.866Z,25.33
2019-01-05T07:10:24.575Z,18.73
2019-01-05T07:14:02.785Z,23.73
2019-01-05T07:17:49.958Z,21.10
2019-01-05T07:21:13.408Z,19.17
2019-01-05T07:24:35.724Z,20.63
2019-01-05T07:27:55.446Z,22.23
2019-01-05T07:31:39.832Z,20.17
2019-01-05T07:35:13.512Z,23.13
2019-01-05T07:38:46.833Z,20.63
2019-01-05T07:42:22.515Z,21.30
2019-01-05T07:46:07.039Z,18.43
2019-01-05T07:50:01.912Z,19.57
2019-01-05T07:53:28.352Z,19.60
2019-01-05T07:57:18.766Z,21.70
2019-01-05T08:00:52.305Z,21.03
2019-01-05T08:04:26.106Z,21.57
2019-01-05T08:08:04.494Z,20.30
2019-01-05T08:11:39.730Z,26.70
2019-01-05T08:15:12.095Z,27.90
2019-01-05T08:18:35.275Z,32.23
2019-01-05T08:22:02.163Z,27.73
2019-01-05T08:25:29.851Z,26.17
2019-01-05T08:28:59.074Z,24.97
2019-01-05T08:32:47.440Z,27.33
2019-01-05T08:36:10.079Z,25.43
2019-01-05T08:40:11.041Z,24.60
2019-01-05T08:43:32.722Z,29.47
2019-01-05T08:46:56.653Z,25.73
2019-01-05T08:50:24.047Z,26.93
2019-01-05T08:53:53.562Z,29.23
2019-01-05T08:57:24.173Z,23.10
2019-01-05T09:01:09.686Z,31.53
2019-01-05T09:04:40.965Z,29.20
2019-01-05T09:07:58.346Z,22.57
2019-01-05T09:11:15.471Z,25.83
2019-01-05T09:14:51.069Z,29.67
2019-01-05T09:18:14.175Z,26.53
2019-01-05T09:21:51.927Z,26.90
2019-01-05T09:25:04.161Z,31.23
2019-01-05T09:28:45.855Z,34.70
2019-01-05T09:32:07.623Z,35.20
2019-01-05T09:35:21.162Z,35.53
2019-01-05T09:38:49.429Z,33.10
2019-01-05T09:42:26.623Z,42.27
2019-01-05T09:45:45.990Z,39.33
2019-01-05T09:49:29.435Z,36.50
2019-01-05T09:53:04.948Z,39.53
2019-01-05T09:56:25.947Z,24.67
2019-01-05T09:59:50.445Z,33.67
2019-01-05T10:03:16.998Z,30.67
2019-01-05T10:06:50.874Z,33.67
2019-01-05T10:10:11.652Z,22.40
2019-01-05T10:13:41.960Z,24.57
2019-01-05T10:17:20.454Z,25.03
2019-01-05T10:21:03.512Z,24.03
2019-01-05T10:24:22.111Z,24.00
2019-01-05T10:27:42.611Z,23.13
2019-01-05T10:31:08.084Z,21.80
2019-01-05T10:34:22.693Z,23.60
2019-01-05T10:37:55.054Z,22.50
2019-01-05T10:41:36.067Z,22.27
2019-01-05T10:45:21.173Z,27.53
2019-01-05T10:49:02.991Z,28.47
2019-01-05T10:52:18.735Z,31.27
2019-01-05T10:55:46.454Z,32.40
2019-01-05T10:59:23.626Z,23.70
2019-01-05T11:02:50.624Z,28.73
2019-01-05T11:06:41.928Z,29.43
2019-01-05T11:10:22.521Z,31.80
2019-01-05T11:13:57.701Z,31.63
2019-01-05T11:17:19.963Z,32.63
2019-01-05T11:20:43.475Z,34.33
2019-01-05T11:24:24.912Z,38.70
2019-01-05T11:27:48.648Z,34.80
2019-01-05T11:31:07.603Z,33.97
2019-01-05T11:34:45.958Z,39.53
2019-01-05T11:38:08.486Z,35.77
2019-01-05T11:41:30.862Z,37.83
2019-01-05T11:45:05.001Z,41.30
2019-01-05T11:48:32.722Z,42.27
2019-01-05T11:52:10.907Z,41.03
2019-01-05T11:55:56.859Z,47.30
2019-01-05T11:59:17.304Z,55.77
2019-01-05T12:03:10.128Z,65.10
2019-01-05T12:06:41.115Z,51.43
2019-01-05T12:10:37.867Z,50.80
2019-01-05T12:14:07.814Z,46.30
2019-01-05T12:18:06.562Z,45.73
2019-01-05T12:21:31.322Z,45.13
2019-01-05T12:24:58.465Z,47.40
2019-01-05T12:28:48.169Z,44.53
2019-01-05T12:32:30.657Z,45.57
2019-01-05T12:36:21.777Z,47.33
2019-01-05T12:39:52.727Z,44.93
2019-01-05T12:43:54.458Z,43.03
2019-01-05T12:47:19.085Z,45.90
2019-01-05T12:50:57.457Z,45.70
2019-01-05T12:54:26.821Z,44.67
2019-01-05T12:58:04.101Z,47.63
2019-01-05T13:01:31.861Z,46.77
2019-01-05T13:04:54.187Z,48.70
2019-01-05T13:08:34.981Z,46.60
2019-01-05T13:12:27.532Z,39.87
2019-01-05T13:15:54.950Z,32.03
2019-01-05T13:19:33.496Z,22.93
2019-01-05T13:23:03.588Z,16.40
2019-01-05T13:26:33.239Z,16.60
2019-01-05T13:29:59.581Z,22.80
2019-01-05T13:33:31.451Z,32.07
2019-01-05T13:36:57.959Z,26.57
2019-01-05T13:40:21.199Z,19.57
2019-01-05T13:43:45.279Z,21.13
2019-01-05T13:47:06.750Z,20.70
2019-01-05T13:50:33.815Z,16.40
2019-01-05T13:53:58.904Z,14.73
2019-01-05T13:57:21.205Z,15.90
2019-01-05T14:00:08.434Z,17.50
2019-01-05T14:02:56.735Z,14.67
2019-01-05T14:05:43.714Z,20.47
2019-01-05T14:08:30.804Z,17.10
2019-01-05T14:11:34.212Z,16.27
2019-01-05T14:14:15.670Z,14.93
2019-01-05T14:17:02.735Z,16.93
2019-01-05T14:20:03.203Z,15.53
2019-01-05T14:22:50.439Z,20.27
2019-01-05T14:25:44.848Z,23.63
2019-01-05T14:28:31.363Z,20.03
2019-01-05T14:31:26.127Z,17.13
2019-01-05T14:34:33.342Z,16.77
2019-01-05T14:37:20.636Z,17.57
2019-01-05T14:40:20.964Z,17.57
2019-01-05T14:43:09.266Z,15.40
2019-01-05T14:46:09.504Z,13.37
2019-01-05T14:49:01.943Z,16.23
2019-01-05T14:51:50.424Z,14.00
2019-01-05T14:54:54.155Z,12.57
2019-01-05T14:57:48.357Z,18.23
2019-01-05T15:00:39.090Z,18.87
2019-01-05T15:03:27.270Z,15.00
2019-01-05T15:06:27.716Z,16.23
2019-01-05T15:09:11.325Z,16.07
2019-01-05T15:12:07.771Z,16.13
2019-01-05T15:14:58.622Z,15.67
2019-01-05T15:18:05.389Z,14.53
2019-01-05T15:21:09.087Z,17.80
2019-01-05T15:23:58.145Z,19.23
2019-01-05T15:27:01.761Z,20.27
2019-01-05T15:29:48.671Z,20.43
2019-01-05T15:32:42.651Z,20.53
2019-01-05T15:35:37.270Z,15.83
2019-01-05T15:38:33.723Z,12.07
2019-01-05T15:41:31.541Z,14.13
2019-01-05T15:44:19.716Z,15.87
2019-01-05T15:47:22.689Z,16.70
2019-01-05T15:50:09.908Z,16.30
2019-01-05T15:53:13.321Z,16.13
2019-01-05T15:56:13.816Z,16.53
2019-01-05T15:59:01.744Z,15.73
2019-01-05T16:01:55.853Z,18.37
2019-01-05T16:04:42.898Z,20.33
2019-01-05T16:07:40.250Z,19.93
2019-01-05T16:10:47.243Z,18.90
2019-01-05T16:13:34.030Z,18.73
2019-01-05T16:16:20.818Z,17.67
2019-01-05T16:19:15.535Z,22.43
2019-01-05T16:22:18.495Z,23.33
2019-01-05T16:25:05.693Z,19.23
2019-01-05T16:28:06.233Z,22.50
2019-01-05T16:30:53.177Z,24.13
2019-01-05T16:33:39.832Z,23.50
2019-01-05T16:36:26.891Z,22.77
2019-01-05T16:39:14.036Z,23.17
2019-01-05T16:42:02.474Z,24.90
2019-01-05T16:45:00.237Z,25.30
2019-01-05T16:47:48.597Z,23.37
2019-01-05T16:50:49.228Z,24.33
2019-01-05T16:53:37.528Z,30.03
2019-01-05T16:56:26.258Z,30.17
2019-01-05T16:59:21.645Z,35.83
2019-01-05T17:02:22.104Z,35.80
2019-01-05T17:05:09.023Z,38.83
2019-01-05T17:08:06.440Z,42.53
2019-01-05T17:10:52.676Z,45.27
2019-01-05T17:13:33.092Z,41.03
2019-01-05T17:16:20.149Z,37.53
2019-01-05T17:19:11.514Z,40.43
2019-01-05T17:22:02.886Z,33.47
2019-01-05T17:24:50.359Z,34.80
2019-01-05T17:27:53.197Z,39.80
2019-01-05T17:30:40.085Z,42.30
2019-01-05T17:33:31.531Z,44.57
2019-01-05T17:36:19.926Z,47.67
2019-01-05T17:39:11.408Z,44.30
2019-01-05T17:42:18.282Z,48.03
2019-01-05T17:45:05.415Z,44.33
2019-01-05T17:47:52.526Z,45.53
2019-01-05T17:50:50.725Z,49.10
2019-01-05T17:53:38.112Z,47.90
2019-01-05T17:56:25.180Z,45.23
2019-01-05T17:59:13.543Z,38.80
2019-01-05T18:02:05.944Z,33.73
2019-01-05T18:04:54.277Z,29.40
2019-01-05T18:07:42.578Z,29.80
2019-01-05T18:10:30.880Z,30.47
2019-01-05T18:13:19.201Z,32.07
2019-01-05T18:16:19.432Z,32.47
2019-01-05T18:19:07.901Z,29.00
2019-01-05T18:22:08.502Z,30.87
2019-01-05T18:24:56.784Z,33.47
2019-01-05T18:27:54.192Z,28.67
2019-01-05T18:30:57.650Z,34.30
2019-01-05T18:33:55.260Z,25.50
2019-01-05T18:36:41.384Z,25.53
2019-01-05T18:39:28.722Z,21.10
2019-01-05T18:42:23.132Z,19.97
2019-01-05T18:45:14.491Z,20.33
2019-01-05T18:48:12.207Z,17.70
2019-01-05T18:51:01.599Z,19.47
2019-01-05T18:54:08.635Z,17.40
2019-01-05T18:56:55.878Z,18.27
2019-01-05T18:59:50.420Z,17.17
2019-01-05T19:02:37.539Z,13.57
2019-01-05T19:05:25.671Z,15.47
2019-01-05T19:08:26.141Z,17.30
2019-01-05T19:11:29.691Z,15.27
2019-01-05T19:14:30.664Z,15.40
2019-01-05T19:17:17.892Z,10.97
2019-01-05T19:19:58.642Z,10.47
2019-01-05T19:22:55.754Z,9.33
2019-01-05T19:25:49.971Z,7.30
2019-01-05T19:28:41.401Z,8.10
2019-01-05T19:31:45.355Z,8.97
2019-01-05T19:34:42.058Z,10.23
2019-01-05T19:37:29.257Z,11.67
2019-01-05T19:40:26.460Z,9.57
2019-01-05T19:43:32.966Z,9.73
2019-01-05T19:46:34.205Z,9.73
2019-01-05T19:49:22.698Z,10.43
2019-01-05T19:52:09.745Z,13.03
2019-01-05T19:55:02.744Z,15.47
2019-01-05T19:58:02.296Z,12.53
2019-01-05T20:00:50.706Z,16.17
2019-01-05T20:03:38.724Z,14.33
2019-01-05T20:06:27.029Z,13.40
2019-01-05T20:09:10.614Z,16.07
2019-01-05T20:11:58.905Z,14.67
2019-01-05T20:14:39.860Z,16.70
2019-01-05T20:17:27.412Z,15.30
2019-01-05T20:20:36.353Z,18.73
2019-01-05T20:23:18.187Z,17.73
2019-01-05T20:26:22.049Z,18.40
2019-01-05T20:29:25.333Z,19.97
2019-01-05T20:32:11.648Z,18.07
2019-01-05T20:35:15.467Z,16.90
2019-01-05T20:38:19.183Z,14.63
2019-01-05T20:41:19.720Z,12.20
2019-01-05T20:44:06.730Z,14.27
2019-01-05T20:47:04.446Z,15.07
2019-01-05T20:50:04.799Z,12.30
2019-01-05T20:52:52.097Z,10.67
2019-01-05T20:55:39.442Z,11.27
2019-01-05T20:58:26.442Z,10.10
2019-01-05T21:01:23.679Z,7.63
2019-01-05T21:04:12.043Z,11.70
2019-01-05T21:07:18.594Z,10.13
2019-01-05T21:10:05.891Z,12.67
2019-01-05T21:13:09.403Z,14.97
2019-01-05T21:16:00.568Z,16.10
2019-01-05T21:18:47.617Z,16.30
2019-01-05T21:21:35.558Z,15.67
2019-01-05T21:24:22.538Z,17.70
2019-01-05T21:27:14.424Z,17.97
2019-01-05T21:30:16.108Z,20.63
2019-01-05T21:33:03.559Z,16.67
2019-01-05T21:35:56.564Z,18.43
2019-01-05T21:38:43.676Z,17.80
2019-01-05T21:41:32.289Z,18.27
2019-01-05T21:44:19.234Z,17.40
2019-01-05T21:47:04.237Z,19.00
2019-01-05T21:49:51.695Z,19.10
2019-01-05T21:52:43.051Z,19.20
2019-01-05T21:55:30.165Z,19.17
2019-01-05T21:58:20.274Z,17.80
2019-01-05T22:01:08.714Z,17.47
2019-01-05T22:03:55.894Z,16.10
2019-01-05T22:06:40.351Z,20.23
2019-01-05T22:09:27.511Z,16.73
2019-01-05T22:12:21.929Z,15.60
2019-01-05T22:15:14.193Z,15.80
2019-01-05T22:18:11.823Z,16.67
2019-01-05T22:21:15.301Z,14.20
2019-01-05T22:24:03.404Z,15.17
2019-01-05T22:26:50.867Z,17.73
2019-01-05T22:29:50.265Z,17.10
2019-01-05T22:32:41.433Z,14.07
2019-01-05T22:35:35.909Z,12.80
2019-01-05T22:38:22.911Z,14.80
2019-01-05T22:41:20.442Z,17.27
2019-01-05T22:44:15.404Z,16.20
2019-01-05T22:47:05.918Z,11.70
2019-01-05T22:50:12.895Z,11.50
2019-01-05T22:53:03.935Z,10.87
2019-01-05T22:55:50.968Z,14.53
2019-01-05T22:58:51.964Z,13.03
2019-01-05T23:01:51.198Z,15.07
2019-01-05T23:04:38.436Z,10.23
2019-01-05T23:07:39.099Z,11.67
2019-01-05T23:10:31.822Z,11.90
2019-01-05T23:13:26.203Z,10.03
2019-01-05T23:16:11.954Z,9.70
2019-01-05T23:19:18.404Z,9.97
2019-01-05T23:22:16.260Z,12.87
2019-01-05T23:25:10.577Z,9.80
2019-01-05T23:28:13.954Z,8.47
2019-01-05T23:31:02.388Z,8.20
2019-01-05T23:34:05.876Z,10.13
2019-01-05T23:36:53.384Z,10.27
2019-01-05T23:39:40.317Z,10.90
2019-01-05T23:42:41.149Z,9.90
2019-01-05T23:45:28.527Z,11.87
2019-01-05T23:48:15.574Z,9.40
2019-01-05T23:51:10.046Z,10.93
2019-01-05T23:54:12.122Z,10.80
2019-01-05T23:56:59.411Z,12.37
2019-01-05T23:59:59.943Z,10.07
